Time;durP1;ratioP1;P1;durP2;ratioP2;P2;SDS_P1;SDS_P2;PMS_P1;PMS_P2;Temp;Humidity;BMP_temperature;BMP_pressure;BME280_temperature;BME280_humidity;BME280_pressure;Samples;Min_cycle;Max_cycle;Signal;HPM_P1;HPM_P2
2021/01/05 00:01:55;;;;;;;13.27;6.95;;;;;;;;;;5010686;28;20041;-89
2021/01/05 00:04:20;;;;;;;10.07;6.43;;;;;;;;;;5027018;28;20022;-89
2021/01/05 00:06:45;;;;;;;10.50;7.05;;;;;;;;;;5010690;28;20049;-89
2021/01/05 00:09:10;;;;;;;8.77;5.72;;;;;;;;;;5010285;28;20060;-89
2021/01/05 00:11:53;;;;;;;6.78;3.90;;;;;;;;;;5011184;28;20671;-89
2021/01/05 00:14:18;;;;;;;9.63;6.07;;;;;;;;;;5010674;28;20041;-89
2021/01/05 00:16:43;;;;;;;10.63;5.63;;;;;;;;;;5027414;28;20018;-88
2021/01/05 00:19:09;;;;;;;8.75;6.03;;;;;;;;;;5035773;28;20108;-89
2021/01/05 00:21:34;;;;;;;9.68;6.82;;;;;;;;;;5015921;28;20044;-89
2021/01/05 00:23:59;;;;;;;9.93;6.57;;;;;;;;;;5018542;28;20112;-90
2021/01/05 00:26:24;;;;;;;8.20;5.10;;;;;;;;;;5018957;28;20018;-89
2021/01/05 00:28:49;;;;;;;8.60;5.90;;;;;;;;;;5009118;28;20026;-89
2021/01/05 00:31:15;;;;;;;11.75;7.80;;;;;;;;;;5007841;28;20024;-89
2021/01/05 00:33:40;;;;;;;10.90;6.88;;;;;;;;;;5012558;28;20014;-89
2021/01/05 00:36:05;;;;;;;8.75;5.63;;;;;;;;;;5031540;28;20041;-89
2021/01/05 00:38:30;;;;;;;10.80;7.10;;;;;;;;;;5031056;28;20074;-89
2021/01/05 00:40:55;;;;;;;10.60;7.53;;;;;;;;;;5010459;28;20022;-88
2021/01/05 00:43:21;;;;;;;12.38;7.18;;;;;;;;;;5026741;28;20022;-90
2021/01/05 00:45:46;;;;;;;10.77;7.25;;;;;;;;;;5014526;28;20092;-89
2021/01/05 00:48:11;;;;;;;9.15;6.28;;;;;;;;;;5036846;28;20133;-89
2021/01/05 00:50:36;;;;;;;10.80;6.57;;;;;;;;;;5011603;28;20045;-89
2021/01/05 00:53:01;;;;;;;10.02;6.53;;;;;;;;;;5009434;28;20021;-90
2021/01/05 00:55:27;;;;;;;12.40;7.63;;;;;;;;;;5009765;28;20388;-89
2021/01/05 00:57:52;;;;;;;11.07;7.38;;;;;;;;;;5010134;28;20021;-89
2021/01/05 01:00:19;;;;;;;11.48;6.68;;;;;;;;;;5009973;28;20080;-89
2021/01/05 01:02:46;;;;;;;11.10;7.47;;;;;;;;;;5010235;28;20113;-89
2021/01/05 01:05:12;;;;;;;12.38;7.28;;;;;;;;;;5011467;28;20021;-89
2021/01/05 01:07:37;;;;;;;13.40;8.65;;;;;;;;;;5010084;28;20471;-89
2021/01/05 01:10:03;;;;;;;12.15;8.20;;;;;;;;;;5011296;28;20029;-89
2021/01/05 01:12:28;;;;;;;10.27;7.00;;;;;;;;;;5011479;28;20026;-89
2021/01/05 01:14:54;;;;;;;13.43;8.75;;;;;;;;;;5029518;28;20026;-89
2021/01/05 01:17:20;;;;;;;9.35;5.40;;;;;;;;;;5015401;28;20117;-89
2021/01/05 01:19:45;;;;;;;12.48;7.60;;;;;;;;;;5014816;28;20041;-89
2021/01/05 01:22:11;;;;;;;13.48;6.82;;;;;;;;;;5013890;28;20026;-90
2021/01/05 01:24:36;;;;;;;11.43;7.80;;;;;;;;;;5022585;28;20025;-89
2021/01/05 01:27:02;;;;;;;11.38;7.22;;;;;;;;;;5029254;28;20025;-89
2021/01/05 01:29:27;;;;;;;10.48;7.03;;;;;;;;;;5009699;28;20463;-90
2021/01/05 01:31:53;;;;;;;12.38;7.90;;;;;;;;;;5011111;28;20022;-89
2021/01/05 01:34:19;;;;;;;10.02;6.47;;;;;;;;;;5010760;28;20025;-89
2021/01/05 01:36:55;;;;;;;10.73;7.47;;;;;;;;;;5012398;28;20026;-89
2021/01/05 01:39:20;;;;;;;10.30;7.15;;;;;;;;;;4997386;28;20044;-89
2021/01/05 01:41:45;;;;;;;12.63;7.60;;;;;;;;;;5012061;28;20038;-89
2021/01/05 01:44:16;;;;;;;11.02;6.38;;;;;;;;;;5013947;28;20219;-89
2021/01/05 01:46:41;;;;;;;10.48;6.35;;;;;;;;;;5035547;28;20462;-89
2021/01/05 01:49:06;;;;;;;13.65;8.23;;;;;;;;;;5010171;28;20014;-90
2021/01/05 01:51:32;;;;;;;10.55;6.72;;;;;;;;;;5012179;28;20014;-89
2021/01/05 01:54:09;;;;;;;9.20;5.50;;;;;;;;;;5011442;28;20026;-89
2021/01/05 01:56:37;;;;;;;13.35;7.45;;;;;;;;;;5023397;28;20034;-89
2021/01/05 01:59:02;;;;;;;9.80;6.22;;;;;;;;;;5017113;28;20076;-89
2021/01/05 02:01:42;;;;;;;9.55;5.63;;;;;;;;;;5029706;28;20041;-89
2021/01/05 02:04:23;;;;;;;13.07;8.50;;;;;;;;;;5011896;28;20057;-89
2021/01/05 02:07:00;;;;;;;12.13;8.23;;;;;;;;;;5029505;28;20109;-89
2021/01/05 02:10:04;;;;;;;13.35;8.15;;;;;;;;;;5028737;28;20084;-89
2021/01/05 02:12:36;;;;;;;13.45;8.65;;;;;;;;;;4991705;28;20358;-89
2021/01/05 02:15:07;;;;;;;11.50;7.55;;;;;;;;;;4975294;28;20225;-89
2021/01/05 02:17:51;;;;;;;14.85;8.77;;;;;;;;;;4990276;28;20029;-89
2021/01/05 02:20:36;;;;;;;15.95;10.18;;;;;;;;;;5024892;28;20463;-89
2021/01/05 02:23:11;;;;;;;13.63;8.13;;;;;;;;;;5000153;28;20041;-89
2021/01/05 02:25:44;;;;;;;12.63;7.82;;;;;;;;;;5015142;28;20038;-89
2021/01/05 02:28:10;;;;;;;17.55;10.65;;;;;;;;;;5013821;28;20026;-89
2021/01/05 02:30:45;;;;;;;14.00;9.13;;;;;;;;;;5027516;28;20093;-90
2021/01/05 02:33:30;;;;;;;13.32;8.57;;;;;;;;;;5001692;28;20030;-89
2021/01/05 02:36:06;;;;;;;16.90;10.82;;;;;;;;;;5001074;28;20060;-88
2021/01/05 02:38:43;;;;;;;14.13;9.13;;;;;;;;;;5003085;28;20080;-88
2021/01/05 02:41:28;;;;;;;12.98;7.18;;;;;;;;;;5011738;28;20121;-89
2021/01/05 02:44:04;;;;;;;15.30;9.82;;;;;;;;;;5012964;28;20033;-89
2021/01/05 02:46:29;;;;;;;17.38;9.90;;;;;;;;;;5013653;28;20029;-90
2021/01/05 02:48:57;;;;;;;12.90;7.72;;;;;;;;;;5011481;28;20172;-89
2021/01/05 02:51:29;;;;;;;16.58;9.68;;;;;;;;;;5012188;28;20476;-90
2021/01/05 02:54:13;;;;;;;17.05;10.35;;;;;;;;;;5011519;28;20037;-89
2021/01/05 02:56:57;;;;;;;12.75;7.75;;;;;;;;;;5011897;28;20110;-89
2021/01/05 02:59:22;;;;;;;16.85;9.27;;;;;;;;;;5001968;28;20017;-89
2021/01/05 03:01:56;;;;;;;14.18;8.45;;;;;;;;;;5021395;28;20032;-89
2021/01/05 03:04:22;;;;;;;17.02;10.30;;;;;;;;;;5015343;28;20484;-89
2021/01/05 03:06:58;;;;;;;18.77;10.07;;;;;;;;;;5011814;28;20017;-88
2021/01/05 03:09:42;;;;;;;14.32;8.48;;;;;;;;;;5012635;28;20061;-89
2021/01/05 03:12:31;;;;;;;17.77;10.85;;;;;;;;;;5011400;28;20014;-89
2021/01/05 03:15:29;;;;;;;10.93;6.80;;;;;;;;;;5011965;28;20575;-89
2021/01/05 03:18:00;;;;;;;15.95;9.57;;;;;;;;;;4999841;28;20048;-89
2021/01/05 03:20:26;;;;;;;16.30;10.40;;;;;;;;;;5011123;28;20025;-89
2021/01/05 03:22:53;;;;;;;18.67;9.40;;;;;;;;;;5014222;28;20077;-89
2021/01/05 03:25:19;;;;;;;16.38;9.13;;;;;;;;;;5008794;28;20057;-89
2021/01/05 03:27:45;;;;;;;18.00;11.50;;;;;;;;;;5008009;28;20123;-89
2021/01/05 03:30:21;;;;;;;18.00;10.80;;;;;;;;;;5008629;28;20094;-89
2021/01/05 03:32:47;;;;;;;17.58;8.63;;;;;;;;;;5008945;28;20025;-89
2021/01/05 03:35:12;;;;;;;17.35;10.38;;;;;;;;;;5008166;28;20025;-89
2021/01/05 03:37:37;;;;;;;15.32;9.07;;;;;;;;;;5010013;28;20435;-88
2021/01/05 03:40:02;;;;;;;20.27;11.40;;;;;;;;;;5008875;28;20018;-89
2021/01/05 03:42:28;;;;;;;15.18;8.65;;;;;;;;;;5019844;28;20017;-90
2021/01/05 03:44:53;;;;;;;14.65;9.20;;;;;;;;;;5011485;28;20021;-89
2021/01/05 03:47:18;;;;;;;20.40;10.88;;;;;;;;;;5010688;28;20468;-89
2021/01/05 03:49:43;;;;;;;19.40;11.77;;;;;;;;;;5012100;28;20022;-89
2021/01/05 03:52:08;;;;;;;17.65;10.70;;;;;;;;;;5013631;28;20082;-90
2021/01/05 03:54:34;;;;;;;18.85;11.13;;;;;;;;;;5023626;28;20022;-89
2021/01/05 03:56:59;;;;;;;19.23;11.40;;;;;;;;;;5010941;28;20022;-89
2021/01/05 03:59:24;;;;;;;14.48;9.15;;;;;;;;;;5010552;28;20080;-89
2021/01/05 04:01:50;;;;;;;15.98;9.30;;;;;;;;;;5012384;28;20049;-89
2021/01/05 04:04:15;;;;;;;16.63;10.30;;;;;;;;;;5010724;28;20409;-88
2021/01/05 04:06:40;;;;;;;16.52;9.68;;;;;;;;;;5011963;28;20106;-89
2021/01/05 04:09:06;;;;;;;15.80;8.60;;;;;;;;;;5011366;28;20022;-89
2021/01/05 04:11:31;;;;;;;12.98;8.25;;;;;;;;;;5010322;28;20026;-89
2021/01/05 04:13:56;;;;;;;14.65;8.50;;;;;;;;;;5010697;28;20061;-88
2021/01/05 04:16:21;;;;;;;12.68;8.13;;;;;;;;;;5007370;28;20113;-89
2021/01/05 04:18:46;;;;;;;14.52;8.13;;;;;;;;;;5002649;28;20014;-89
2021/01/05 04:21:12;;;;;;;15.27;9.77;;;;;;;;;;5011876;28;20006;-89
2021/01/05 04:23:37;;;;;;;17.63;9.88;;;;;;;;;;5011916;28;20372;-89
2021/01/05 04:26:02;;;;;;;13.88;8.90;;;;;;;;;;5008572;28;20018;-89
2021/01/05 04:28:28;;;;;;;17.08;8.73;;;;;;;;;;5004164;28;20145;-89
2021/01/05 04:30:53;;;;;;;17.35;10.25;;;;;;;;;;5007457;28;20025;-89
2021/01/05 04:33:18;;;;;;;12.45;6.97;;;;;;;;;;5013849;28;20050;-89
2021/01/05 04:35:43;;;;;;;14.75;8.65;;;;;;;;;;5024384;28;20010;-89
2021/01/05 04:38:08;;;;;;;14.02;8.88;;;;;;;;;;5011660;28;20022;-89
2021/01/05 04:40:45;;;;;;;14.60;8.95;;;;;;;;;;5010367;28;20022;-88
2021/01/05 04:43:23;;;;;;;12.32;5.65;;;;;;;;;;5024401;28;20047;-88
2021/01/05 04:45:51;;;;;;;20.05;9.48;;;;;;;;;;5004847;28;20013;-89
2021/01/05 04:48:35;;;;;;;17.48;9.85;;;;;;;;;;5019687;28;20041;-89
2021/01/05 04:51:02;;;;;;;15.70;8.52;;;;;;;;;;5015050;28;20019;-89
2021/01/05 04:53:31;;;;;;;15.57;9.00;;;;;;;;;;5009435;28;20320;-89
2021/01/05 04:55:59;;;;;;;16.92;9.80;;;;;;;;;;4997139;28;20018;-89
2021/01/05 04:58:27;;;;;;;18.30;10.13;;;;;;;;;;5011077;28;20358;-88
2021/01/05 05:00:54;;;;;;;19.05;10.80;;;;;;;;;;5012637;28;20073;-89
2021/01/05 05:03:25;;;;;;;17.85;10.55;;;;;;;;;;5005929;28;20028;-88
2021/01/05 05:06:00;;;;;;;16.58;10.30;;;;;;;;;;5013965;28;20105;-89
2021/01/05 05:08:25;;;;;;;15.85;8.65;;;;;;;;;;5014095;28;20256;-89
2021/01/05 05:10:53;;;;;;;18.42;10.45;;;;;;;;;;5013752;28;20428;-89
2021/01/05 05:13:25;;;;;;;16.70;10.05;;;;;;;;;;5015053;28;20036;-89
2021/01/05 05:15:50;;;;;;;;;;;;;;;;;;5016172;28;20480;-88
2021/01/05 05:18:31;;;;;;;20.15;11.32;;;;;;;;;;5013599;28;20788;-89
2021/01/05 05:21:09;;;;;;;16.38;9.30;;;;;;;;;;5015390;28;20255;-89
2021/01/05 05:23:52;;;;;;;17.00;10.25;;;;;;;;;;5030264;28;20025;-89
2021/01/05 05:26:21;;;;;;;14.35;8.15;;;;;;;;;;5019507;28;20562;-88
2021/01/05 05:28:55;;;;;;;15.05;8.63;;;;;;;;;;5013440;28;20480;-89
2021/01/05 05:31:22;;;;;;;14.10;7.47;;;;;;;;;;5013892;28;20584;-90
2021/01/05 05:33:48;;;;;;;19.08;10.15;;;;;;;;;;5013532;28;20014;-89
2021/01/05 05:36:20;;;;;;;13.93;7.95;;;;;;;;;;5030325;28;20125;-89
2021/01/05 05:38:46;;;;;;;;;;;;;;;;;;5013352;28;20120;-89
2021/01/05 05:41:20;;;;;;;17.90;8.95;;;;;;;;;;5015242;28;19905;-89
2021/01/05 05:44:04;;;;;;;17.50;9.10;;;;;;;;;;5011572;28;20289;-89
2021/01/05 05:46:34;;;;;;;15.70;9.40;;;;;;;;;;5013556;28;20456;-89
2021/01/05 05:49:03;;;;;;;16.60;9.02;;;;;;;;;;5012671;28;20164;-89
2021/01/05 05:51:31;;;;;;;16.33;9.95;;;;;;;;;;5014388;28;20026;-89
2021/01/05 05:54:05;;;;;;;16.60;9.07;;;;;;;;;;5013126;28;20037;-89
2021/01/05 05:56:37;;;;;;;12.50;4.97;;;;;;;;;;5014409;28;20357;-89
2021/01/05 05:59:03;;;;;;;15.18;9.52;;;;;;;;;;5026052;28;20022;-89
2021/01/05 06:01:34;;;;;;;15.27;9.45;;;;;;;;;;5013145;28;20032;-89
2021/01/05 06:03:59;;;;;;;17.88;10.02;;;;;;;;;;5014727;28;20021;-89
2021/01/05 06:06:24;;;;;;;13.68;8.73;;;;;;;;;;5025761;28;20018;-88
2021/01/05 06:08:49;;;;;;;14.02;7.82;;;;;;;;;;5013627;28;20018;-88
2021/01/05 06:11:15;;;;;;;15.95;8.95;;;;;;;;;;5014749;28;20316;-89
2021/01/05 06:13:40;;;;;;;13.13;8.18;;;;;;;;;;5012267;28;20472;-89
2021/01/05 06:16:05;;;;;;;15.40;9.60;;;;;;;;;;5012930;28;20033;-89
2021/01/05 06:18:30;;;;;;;15.30;8.73;;;;;;;;;;5014020;28;20079;-89
2021/01/05 06:20:55;;;;;;;14.68;8.80;;;;;;;;;;5012202;28;20038;-89
2021/01/05 06:23:21;;;;;;;16.98;10.65;;;;;;;;;;5021260;28;20128;-89
2021/01/05 06:25:46;;;;;;;16.42;10.18;;;;;;;;;;5022261;28;20052;-89
2021/01/05 06:28:12;;;;;;;15.37;9.00;;;;;;;;;;5012860;28;20107;-89
2021/01/05 06:30:37;;;;;;;17.47;10.17;;;;;;;;;;5012326;28;20017;-89
2021/01/05 06:33:02;;;;;;;15.07;8.52;;;;;;;;;;5013595;28;20018;-88
2021/01/05 06:35:27;;;;;;;16.08;10.18;;;;;;;;;;5013485;28;20013;-89
2021/01/05 06:37:53;;;;;;;12.07;6.72;;;;;;;;;;5023356;28;20022;-89
2021/01/05 06:40:19;;;;;;;14.43;8.02;;;;;;;;;;5031087;28;20021;-88
2021/01/05 06:42:45;;;;;;;15.50;8.17;;;;;;;;;;5012374;28;20014;-89
2021/01/05 06:45:14;;;;;;;15.50;8.43;;;;;;;;;;5025505;28;20162;-89
2021/01/05 06:47:39;;;;;;;13.97;9.07;;;;;;;;;;5010970;28;20025;-89
2021/01/05 06:50:04;;;;;;;14.45;8.63;;;;;;;;;;5010221;28;20014;-89
2021/01/05 06:52:30;;;;;;;14.50;9.10;;;;;;;;;;5009550;28;20397;-89
2021/01/05 06:54:55;;;;;;;15.13;8.32;;;;;;;;;;5008725;28;20028;-89
2021/01/05 06:57:20;;;;;;;15.07;8.90;;;;;;;;;;5010897;28;20071;-89
2021/01/05 06:59:45;;;;;;;17.05;10.50;;;;;;;;;;5009218;28;20022;-89
2021/01/05 07:02:12;;;;;;;15.73;9.60;;;;;;;;;;5009316;28;20025;-88
2021/01/05 07:04:37;;;;;;;17.33;10.47;;;;;;;;;;5008784;28;20029;-89
2021/01/05 07:07:02;;;;;;;14.87;9.67;;;;;;;;;;5010598;28;20026;-89
2021/01/05 07:09:29;;;;;;;15.60;8.70;;;;;;;;;;5009888;28;20021;-89
2021/01/05 07:11:54;;;;;;;17.53;9.07;;;;;;;;;;5009676;28;20018;-89
2021/01/05 07:14:21;;;;;;;14.63;7.80;;;;;;;;;;5007454;28;20022;-88
2021/01/05 07:16:46;;;;;;;16.93;9.50;;;;;;;;;;5008482;28;20026;-88
2021/01/05 07:19:12;;;;;;;15.20;8.87;;;;;;;;;;5011072;28;20538;-89
2021/01/05 07:21:37;;;;;;;15.20;9.10;;;;;;;;;;5011120;28;20044;-88
2021/01/05 07:24:02;;;;;;;14.20;7.77;;;;;;;;;;5021691;28;20321;-88
2021/01/05 07:26:31;;;;;;;15.90;8.88;;;;;;;;;;5020276;28;20481;-88
2021/01/05 07:28:56;;;;;;;17.02;9.65;;;;;;;;;;5010565;28;20029;-88
2021/01/05 07:31:21;;;;;;;18.00;10.03;;;;;;;;;;5024839;28;20437;-88
2021/01/05 07:33:46;;;;;;;15.93;8.13;;;;;;;;;;5027765;28;20022;-89
2021/01/05 07:36:38;;;;;;;14.70;8.63;;;;;;;;;;5012821;28;20014;-89
2021/01/05 07:39:14;;;;;;;18.30;9.57;;;;;;;;;;5011253;28;20046;-88
2021/01/05 07:41:40;;;;;;;16.93;9.43;;;;;;;;;;5012392;28;20334;-86
2021/01/05 07:44:05;;;;;;;17.83;9.80;;;;;;;;;;5025834;28;20029;-89
2021/01/05 07:46:30;;;;;;;15.20;8.57;;;;;;;;;;5012613;28;20018;-89
2021/01/05 07:48:55;;;;;;;17.30;10.33;;;;;;;;;;5011536;28;20624;-88
2021/01/05 07:51:20;;;;;;;16.57;9.30;;;;;;;;;;5010843;28;20014;-89
2021/01/05 07:53:46;;;;;;;15.57;7.65;;;;;;;;;;5011643;28;20117;-89
2021/01/05 07:56:11;;;;;;;14.23;8.43;;;;;;;;;;5010190;28;20694;-89
2021/01/05 07:58:36;;;;;;;19.48;11.27;;;;;;;;;;4992968;28;20026;-88
2021/01/05 08:01:01;;;;;;;20.40;11.48;;;;;;;;;;5002687;28;20034;-89
2021/01/05 08:03:26;;;;;;;24.47;11.10;;;;;;;;;;5004188;28;20741;-89
2021/01/05 08:05:52;;;;;;;16.77;9.53;;;;;;;;;;5003076;28;20461;-89
2021/01/05 08:08:17;;;;;;;23.13;12.57;;;;;;;;;;5006443;28;20028;-89
2021/01/05 08:10:42;;;;;;;20.40;11.20;;;;;;;;;;5001826;28;20014;-89
2021/01/05 08:13:09;;;;;;;24.50;12.47;;;;;;;;;;5008381;28;20033;-88
2021/01/05 08:15:35;;;;;;;20.80;10.97;;;;;;;;;;4985932;28;20072;-89
2021/01/05 08:18:00;;;;;;;21.17;11.07;;;;;;;;;;5001881;28;20385;-88
2021/01/05 08:20:27;;;;;;;23.70;12.13;;;;;;;;;;5011768;28;20017;-88
2021/01/05 08:22:52;;;;;;;19.70;10.13;;;;;;;;;;5011465;28;20064;-88
2021/01/05 08:25:18;;;;;;;24.33;12.63;;;;;;;;;;5004191;28;20041;-89
2021/01/05 08:27:47;;;;;;;23.27;12.00;;;;;;;;;;5014280;28;20473;-89
2021/01/05 08:30:14;;;;;;;21.97;12.03;;;;;;;;;;5011056;28;20117;-88
2021/01/05 08:32:39;;;;;;;20.33;10.37;;;;;;;;;;5011565;28;20014;-89
2021/01/05 08:35:05;;;;;;;22.60;12.83;;;;;;;;;;5019837;28;20010;-88
2021/01/05 08:37:30;;;;;;;23.10;12.27;;;;;;;;;;5007394;28;20045;-88
2021/01/05 08:39:55;;;;;;;21.77;11.53;;;;;;;;;;5009747;28;20400;-89
2021/01/05 08:42:20;;;;;;;25.47;12.50;;;;;;;;;;5008437;28;20033;-87
2021/01/05 08:44:45;;;;;;;22.53;12.37;;;;;;;;;;5007484;28;20109;-86
2021/01/05 08:47:11;;;;;;;37.00;12.93;;;;;;;;;;5023464;28;20014;-90
2021/01/05 08:49:36;;;;;;;26.37;12.97;;;;;;;;;;5007300;28;20025;-86
2021/01/05 08:52:01;;;;;;;25.57;13.23;;;;;;;;;;5021403;28;20091;-88
2021/01/05 08:54:26;;;;;;;22.33;12.47;;;;;;;;;;5010055;28;20018;-88
2021/01/05 08:56:56;;;;;;;28.23;14.53;;;;;;;;;;5015395;28;20556;-86
2021/01/05 08:59:22;;;;;;;27.70;13.30;;;;;;;;;;5015208;28;20017;-88
2021/01/05 09:01:47;;;;;;;25.53;13.60;;;;;;;;;;5010309;28;20017;-90
2021/01/05 09:04:12;;;;;;;31.33;14.50;;;;;;;;;;5009862;28;20056;-88
2021/01/05 09:06:37;;;;;;;28.60;13.37;;;;;;;;;;5011461;28;20421;-88
2021/01/05 09:09:03;;;;;;;23.60;12.47;;;;;;;;;;5010616;28;20756;-89
2021/01/05 09:11:28;;;;;;;27.17;14.40;;;;;;;;;;5008768;28;20088;-87
2021/01/05 09:13:54;;;;;;;26.70;13.07;;;;;;;;;;5011530;28;20022;-87
2021/01/05 09:16:24;;;;;;;21.67;11.40;;;;;;;;;;5006159;28;20473;-88
2021/01/05 09:18:49;;;;;;;26.10;13.70;;;;;;;;;;5006952;28;20022;-88
2021/01/05 09:21:14;;;;;;;22.13;11.47;;;;;;;;;;5011062;28;20018;-87
2021/01/05 09:23:39;;;;;;;19.63;9.70;;;;;;;;;;5010866;28;20050;-88
2021/01/05 09:26:08;;;;;;;24.90;12.60;;;;;;;;;;5011141;28;20784;-88
2021/01/05 09:28:33;;;;;;;26.47;13.73;;;;;;;;;;5007182;28;20068;-88
2021/01/05 09:30:58;;;;;;;30.10;14.63;;;;;;;;;;5003926;28;20657;-88
2021/01/05 09:33:25;;;;;;;23.83;12.77;;;;;;;;;;5009531;28;20025;-88
2021/01/05 09:35:50;;;;;;;25.20;12.87;;;;;;;;;;5018787;28;20334;-88
2021/01/05 09:38:15;;;;;;;25.43;12.83;;;;;;;;;;5018300;28;20022;-87
2021/01/05 09:40:41;;;;;;;28.37;13.70;;;;;;;;;;5017323;28;20022;-88
2021/01/05 09:43:10;;;;;;;27.43;12.67;;;;;;;;;;5015520;28;20049;-88
2021/01/05 09:45:36;;;;;;;21.97;9.40;;;;;;;;;;5016648;28;20021;-89
2021/01/05 09:48:02;;;;;;;27.90;13.82;;;;;;;;;;5007882;28;20760;-89
2021/01/05 09:50:27;;;;;;;27.23;14.77;;;;;;;;;;5015524;28;20018;-91
2021/01/05 09:52:52;;;;;;;20.63;11.00;;;;;;;;;;5012035;28;20018;-87
2021/01/05 09:55:17;;;;;;;25.63;12.50;;;;;;;;;;5011529;28;20013;-88
2021/01/05 09:57:43;;;;;;;27.15;13.90;;;;;;;;;;5011655;28;20473;-86
2021/01/05 10:00:08;;;;;;;34.00;15.27;;;;;;;;;;5006590;28;20485;-87
2021/01/05 10:02:33;;;;;;;22.20;10.67;;;;;;;;;;5009995;28;20033;-89
2021/01/05 10:04:58;;;;;;;29.80;15.50;;;;;;;;;;5015053;28;20512;-90
2021/01/05 10:07:24;;;;;;;27.80;13.40;;;;;;;;;;5010804;28;20429;-88
2021/01/05 10:09:49;;;;;;;28.30;13.83;;;;;;;;;;5011112;28;20068;-88
2021/01/05 10:12:14;;;;;;;25.17;12.17;;;;;;;;;;5006116;28;20406;-86
2021/01/05 10:14:40;;;;;;;24.60;12.03;;;;;;;;;;5016096;28;20018;-88
2021/01/05 10:17:05;;;;;;;26.35;14.15;;;;;;;;;;5023038;28;20083;-89
2021/01/05 10:19:30;;;;;;;27.63;12.25;;;;;;;;;;5011280;28;20017;-90
2021/01/05 10:21:55;;;;;;;26.65;13.60;;;;;;;;;;5024631;28;20030;-89
2021/01/05 10:24:21;;;;;;;27.20;13.75;;;;;;;;;;5005898;28;20369;-89
2021/01/05 10:26:50;;;;;;;24.63;11.30;;;;;;;;;;5014040;28;20456;-89
2021/01/05 10:29:15;;;;;;;26.92;14.07;;;;;;;;;;5010640;28;20051;-89
2021/01/05 10:31:44;;;;;;;23.80;11.07;;;;;;;;;;5008311;28;20038;-88
2021/01/05 10:34:10;;;;;;;25.00;12.25;;;;;;;;;;5005280;28;20029;-89
2021/01/05 10:36:36;;;;;;;24.33;12.82;;;;;;;;;;5002026;28;20038;-86
2021/01/05 10:39:01;;;;;;;20.45;10.50;;;;;;;;;;5021450;28;20097;-90
2021/01/05 10:41:41;;;;;;;27.80;15.10;;;;;;;;;;5012377;28;20494;-87
2021/01/05 10:44:07;;;;;;;30.65;14.68;;;;;;;;;;5009469;28;20214;-89
2021/01/05 10:46:32;;;;;;;21.67;11.30;;;;;;;;;;5005793;28;20113;-89
2021/01/05 10:48:57;;;;;;;24.43;10.67;;;;;;;;;;5008309;28;20384;-88
2021/01/05 10:51:22;;;;;;;27.00;14.18;;;;;;;;;;5010476;28;20024;-90
2021/01/05 10:53:48;;;;;;;29.05;13.77;;;;;;;;;;5014421;28;20480;-92
2021/01/05 10:56:14;;;;;;;24.48;11.55;;;;;;;;;;5020471;28;20076;-91
2021/01/05 10:58:39;;;;;;;27.20;13.60;;;;;;;;;;5013619;28;20038;-87
2021/01/05 11:01:04;;;;;;;23.50;10.32;;;;;;;;;;5011654;28;20217;-90
2021/01/05 11:03:29;;;;;;;31.65;15.05;;;;;;;;;;5010986;28;20555;-90
2021/01/05 11:05:55;;;;;;;29.13;13.27;;;;;;;;;;5012202;28;20398;-88
2021/01/05 11:08:20;;;;;;;24.80;11.25;;;;;;;;;;5007647;28;20026;-90
2021/01/05 11:10:45;;;;;;;24.15;12.55;;;;;;;;;;5026106;28;20021;-90
2021/01/05 11:13:10;;;;;;;25.98;13.00;;;;;;;;;;5010481;28;20025;-89
2021/01/05 11:15:35;;;;;;;23.52;11.50;;;;;;;;;;5011286;28;20025;-88
2021/01/05 11:18:00;;;;;;;22.98;11.63;;;;;;;;;;5013318;28;20010;-88
2021/01/05 11:20:26;;;;;;;30.60;13.95;;;;;;;;;;5014762;28;20161;-88
2021/01/05 11:22:51;;;;;;;30.58;14.43;;;;;;;;;;5009917;28;20022;-89
2021/01/05 11:25:17;;;;;;;25.92;12.75;;;;;;;;;;5010757;28;20109;-86
2021/01/05 11:27:42;;;;;;;29.88;14.00;;;;;;;;;;5008591;28;20799;-90
2021/01/05 11:30:08;;;;;;;24.38;12.68;;;;;;;;;;5011900;28;20460;-90
2021/01/05 11:32:33;;;;;;;27.92;13.73;;;;;;;;;;5012293;28;20068;-90
2021/01/05 11:34:58;;;;;;;30.17;14.48;;;;;;;;;;5011608;28;20025;-90
2021/01/05 11:37:24;;;;;;;28.60;14.15;;;;;;;;;;5006841;28;20022;-89
2021/01/05 11:39:50;;;;;;;28.50;14.97;;;;;;;;;;5009236;28;20025;-89
2021/01/05 11:42:18;;;;;;;29.47;13.40;;;;;;;;;;5012017;28;20503;-89
2021/01/05 11:44:45;;;;;;;24.90;13.23;;;;;;;;;;5020884;28;20026;-89
2021/01/05 11:47:10;;;;;;;26.13;13.33;;;;;;;;;;5008071;28;20026;-89
2021/01/05 11:49:35;;;;;;;33.03;15.83;;;;;;;;;;5023912;28;20713;-89
2021/01/05 11:52:01;;;;;;;27.57;13.97;;;;;;;;;;5023279;28;20018;-89
2021/01/05 11:54:26;;;;;;;26.02;12.85;;;;;;;;;;5014508;28;20091;-89
2021/01/05 11:56:58;;;;;;;32.10;15.02;;;;;;;;;;5014880;28;20009;-90
2021/01/05 11:59:23;;;;;;;28.92;14.32;;;;;;;;;;5006194;28;20041;-89
2021/01/05 12:01:49;;;;;;;31.93;16.47;;;;;;;;;;5013584;28;20127;-89
2021/01/05 12:04:14;;;;;;;32.13;15.93;;;;;;;;;;5016721;28;20013;-89
2021/01/05 12:06:39;;;;;;;34.20;16.40;;;;;;;;;;5014787;28;20022;-89
2021/01/05 12:09:07;;;;;;;33.47;14.43;;;;;;;;;;5018112;28;20477;-89
2021/01/05 12:11:33;;;;;;;30.57;14.97;;;;;;;;;;5012808;28;20033;-89
2021/01/05 12:13:59;;;;;;;32.93;15.80;;;;;;;;;;5015327;28;20045;-89
2021/01/05 12:26:42;;;;;;;30.17;14.77;;;;;;;;;;4965652;28;20070;-86
2021/01/05 12:29:09;;;;;;;26.53;13.43;;;;;;;;;;4969539;28;20076;-84
2021/01/05 12:31:39;;;;;;;25.87;13.73;;;;;;;;;;4971234;28;20046;-85
2021/01/05 12:34:04;;;;;;;30.83;14.70;;;;;;;;;;4978556;28;20117;-86
2021/01/05 12:36:31;;;;;;;24.07;12.20;;;;;;;;;;4972214;28;20113;-86
2021/01/05 12:38:57;;;;;;;25.43;12.87;;;;;;;;;;4971254;28;20066;-86
2021/01/05 12:41:29;;;;;;;22.50;10.55;;;;;;;;;;4969971;28;20061;-84
2021/01/05 12:43:54;;;;;;;21.27;9.23;;;;;;;;;;4971114;28;20023;-85
2021/01/05 12:46:24;;;;;;;25.05;10.98;;;;;;;;;;4971402;28;20082;-84
2021/01/05 12:48:49;;;;;;;25.98;10.50;;;;;;;;;;4971197;28;20378;-85
2021/01/05 12:51:14;;;;;;;22.40;11.35;;;;;;;;;;4971859;28;20030;-84
2021/01/05 12:53:40;;;;;;;22.58;10.70;;;;;;;;;;4969983;28;20030;-85
2021/01/05 12:56:05;;;;;;;22.67;10.25;;;;;;;;;;4965170;28;20027;-86
2021/01/05 12:58:30;;;;;;;24.48;11.68;;;;;;;;;;4967262;28;20158;-85
2021/01/05 13:00:56;;;;;;;28.30;13.68;;;;;;;;;;4968397;28;20459;-85
2021/01/05 13:03:21;;;;;;;23.67;11.27;;;;;;;;;;4975401;28;20046;-83
2021/01/05 13:05:46;;;;;;;27.73;12.13;;;;;;;;;;4975718;28;20030;-84
2021/01/05 13:08:11;;;;;;;22.35;9.98;;;;;;;;;;4974836;28;20545;-84
2021/01/05 13:10:36;;;;;;;22.58;10.63;;;;;;;;;;4976269;28;20483;-85
2021/01/05 13:13:02;;;;;;;24.65;12.05;;;;;;;;;;4975500;28;20025;-82
2021/01/05 13:15:27;;;;;;;21.67;11.23;;;;;;;;;;4972813;28;20688;-79
2021/01/05 13:17:53;;;;;;;23.15;11.35;;;;;;;;;;4974318;28;20351;-81
2021/01/05 13:20:19;;;;;;;27.45;12.50;;;;;;;;;;4974399;28;20437;-80
2021/01/05 13:22:44;;;;;;;24.80;13.07;;;;;;;;;;4967623;28;20058;-79
2021/01/05 13:25:10;;;;;;;21.87;11.17;;;;;;;;;;4993309;28;20409;-79
2021/01/05 13:27:36;;;;;;;25.30;12.23;;;;;;;;;;4977291;28;20058;-79
2021/01/05 13:30:01;;;;;;;22.77;11.80;;;;;;;;;;4990287;28;20051;-79
2021/01/05 13:32:28;;;;;;;20.70;10.95;;;;;;;;;;4973602;28;20023;-79
2021/01/05 13:34:54;;;;;;;24.93;12.70;;;;;;;;;;4977105;28;20043;-79
2021/01/05 13:37:19;;;;;;;25.77;12.67;;;;;;;;;;4971228;28;20486;-86
2021/01/05 13:39:46;;;;;;;20.47;11.00;;;;;;;;;;4971303;28;20030;-85
2021/01/05 13:42:19;;;;;;;20.80;11.17;;;;;;;;;;4974571;28;20102;-79
2021/01/05 13:44:45;;;;;;;22.87;11.80;;;;;;;;;;4975220;28;20113;-80
2021/01/05 13:47:11;;;;;;;24.50;12.93;;;;;;;;;;4974298;28;20054;-79
2021/01/05 13:52:14;;;;;;;19.90;10.27;;;;;;;;;;5488621;22;20423;-79
2021/01/05 13:54:39;;;;;;;21.10;10.47;;;;;;;;;;5000338;28;20022;-80
2021/01/05 13:57:05;;;;;;;21.53;10.67;;;;;;;;;;5010050;28;20738;-82
2021/01/05 13:59:30;;;;;;;23.20;13.17;;;;;;;;;;5019691;28;20430;-82
2021/01/05 14:01:57;;;;;;;19.63;9.97;;;;;;;;;;5015332;28;20017;-82
2021/01/05 14:04:22;;;;;;;22.90;11.60;;;;;;;;;;5013981;28;20025;-83
2021/01/05 14:06:48;;;;;;;21.40;11.15;;;;;;;;;;5011377;28;20086;-83
2021/01/05 14:09:13;;;;;;;22.57;11.57;;;;;;;;;;5009144;28;20037;-83
2021/01/05 14:11:38;;;;;;;23.13;11.68;;;;;;;;;;5021257;28;20033;-81
2021/01/05 14:14:03;;;;;;;19.33;9.75;;;;;;;;;;5013018;28;20026;-83
2021/01/05 14:16:28;;;;;;;20.27;10.88;;;;;;;;;;5021374;28;20032;-83
2021/01/05 14:18:54;;;;;;;22.85;10.95;;;;;;;;;;5017049;28;20038;-82
2021/01/05 14:21:24;;;;;;;22.25;10.75;;;;;;;;;;5006008;28;20034;-84
2021/01/05 14:23:49;;;;;;;24.23;12.25;;;;;;;;;;5020766;28;20030;-83
2021/01/05 14:26:15;;;;;;;25.42;13.02;;;;;;;;;;5012977;28;20551;-82
2021/01/05 14:28:41;;;;;;;17.98;8.93;;;;;;;;;;5005449;28;20023;-83
2021/01/05 14:31:10;;;;;;;21.05;9.60;;;;;;;;;;5006299;28;20048;-82
2021/01/05 14:33:36;;;;;;;18.35;10.52;;;;;;;;;;5018396;28;20368;-82
2021/01/05 14:36:01;;;;;;;28.23;14.00;;;;;;;;;;5022650;28;20014;-83
2021/01/05 14:38:26;;;;;;;27.95;13.40;;;;;;;;;;5024303;28;20021;-82